createdAt,value
2023-05-11T00:00:07.746Z,7.78
2023-05-11T00:02:41.330Z,7.00
2023-05-11T00:05:12.310Z,6.05
2023-05-11T00:07:42.587Z,7.32
2023-05-11T00:10:13.492Z,6.43
2023-05-11T00:12:43.840Z,7.10
2023-05-11T00:15:14.593Z,4.50
2023-05-11T00:17:47.534Z,5.18
2023-05-11T00:20:18.037Z,3.50
2023-05-11T00:22:48.788Z,4.32
2023-05-11T00:25:19.058Z,4.82
2023-05-11T00:27:49.379Z,4.80
2023-05-11T00:30:20.050Z,4.68
2023-05-11T00:32:54.263Z,7.95
2023-05-11T00:35:24.835Z,6.47
2023-05-11T00:37:55.162Z,5.82
2023-05-11T00:40:25.699Z,5.28
2023-05-11T00:42:55.974Z,4.68
2023-05-11T00:45:26.933Z,5.15
2023-05-11T00:48:00.043Z,2.92
2023-05-11T00:50:30.936Z,4.95
2023-05-11T00:53:01.551Z,3.40
2023-05-11T00:55:31.927Z,6.95
2023-05-11T00:58:02.475Z,4.70
2023-05-11T01:00:33.052Z,5.97
2023-05-11T01:03:07.519Z,3.40
2023-05-11T01:05:43.813Z,3.75
2023-05-11T01:08:17.917Z,3.90
2023-05-11T01:10:50.301Z,4.32
2023-05-11T01:13:38.211Z,4.68
2023-05-11T01:16:12.464Z,4.55
2023-05-11T01:18:47.783Z,5.45
2023-05-11T01:21:20.832Z,5.03
2023-05-11T01:24:19.118Z,3.40
2023-05-11T01:26:56.761Z,4.07
2023-05-11T01:29:42.219Z,4.78
2023-05-11T01:32:18.892Z,4.35
2023-05-11T01:34:49.769Z,6.72
2023-05-11T01:37:22.721Z,7.78
2023-05-11T01:39:56.977Z,8.45
2023-05-11T01:42:30.074Z,7.75
2023-05-11T01:45:00.787Z,6.60
2023-05-11T01:47:34.340Z,5.55
2023-05-11T01:50:06.375Z,5.70
2023-05-11T01:52:36.738Z,4.43
2023-05-11T01:55:10.302Z,6.85
2023-05-11T01:57:41.742Z,8.38
2023-05-11T02:00:12.722Z,5.90
2023-05-11T02:02:47.671Z,8.07
2023-05-11T02:05:21.274Z,5.03
2023-05-11T02:07:52.903Z,6.10
2023-05-11T02:10:24.666Z,6.97
2023-05-11T02:12:56.053Z,6.75
2023-05-11T02:15:28.403Z,6.95
2023-05-11T02:18:01.928Z,5.57
2023-05-11T02:20:32.306Z,13.80
2023-05-11T02:23:03.770Z,6.85
2023-05-11T02:25:34.722Z,5.75
2023-05-11T02:28:06.115Z,6.03
2023-05-11T02:30:43.151Z,8.63
2023-05-11T02:33:21.220Z,8.15
2023-05-11T02:35:52.481Z,9.57
2023-05-11T02:38:24.040Z,5.45
2023-05-11T02:40:58.124Z,6.05
2023-05-11T02:43:30.526Z,5.38
2023-05-11T02:46:06.419Z,7.72
2023-05-11T02:48:43.071Z,7.35
2023-05-11T02:51:14.995Z,8.30
2023-05-11T02:53:50.988Z,7.20
2023-05-11T02:56:22.313Z,9.60
2023-05-11T02:58:54.450Z,7.15
2023-05-11T03:01:30.382Z,9.90
2023-05-11T03:04:06.423Z,7.28
2023-05-11T03:06:36.917Z,8.10
2023-05-11T03:09:10.265Z,7.95
2023-05-11T03:11:45.712Z,6.15
2023-05-11T03:14:16.170Z,8.45
2023-05-11T03:16:48.869Z,7.65
2023-05-11T03:19:22.304Z,7.78
2023-05-11T03:21:54.566Z,7.47
2023-05-11T03:24:25.002Z,7.15
2023-05-11T03:26:57.087Z,7.55
2023-05-11T03:29:30.857Z,7.30
2023-05-11T03:32:01.303Z,6.65
2023-05-11T03:34:35.872Z,6.07
2023-05-11T03:37:07.714Z,6.75
2023-05-11T03:39:39.589Z,7.38
2023-05-11T03:42:11.451Z,9.10
2023-05-11T03:44:42.777Z,7.22
2023-05-11T03:47:13.779Z,8.18
2023-05-11T03:49:47.649Z,11.00
2023-05-11T03:52:18.243Z,7.47
2023-05-11T03:54:48.770Z,6.65
2023-05-11T03:57:19.336Z,7.28
2023-05-11T03:59:49.891Z,10.10
2023-05-11T04:02:20.540Z,7.47
2023-05-11T04:04:53.573Z,9.13
2023-05-11T04:07:23.951Z,6.57
2023-05-11T04:09:54.242Z,6.70
2023-05-11T04:12:24.579Z,6.72
2023-05-11T04:14:54.832Z,6.00
2023-05-11T04:17:25.295Z,6.80
2023-05-11T04:19:58.336Z,5.72
2023-05-11T04:22:28.681Z,7.20
2023-05-11T04:24:59.479Z,8.45
2023-05-11T04:27:29.794Z,6.55
2023-05-11T04:30:00.062Z,6.85
2023-05-11T04:32:32.868Z,7.93
2023-05-11T04:35:05.600Z,6.85
2023-05-11T04:37:38.874Z,6.57
2023-05-11T04:40:12.267Z,7.10
2023-05-11T04:42:44.458Z,9.02
2023-05-11T04:45:19.450Z,6.93
2023-05-11T04:47:49.872Z,6.68
2023-05-11T04:50:22.731Z,7.88
2023-05-11T04:52:52.730Z,8.35
2023-05-11T04:55:22.860Z,8.40
2023-05-11T04:57:53.534Z,5.57
2023-05-11T05:00:24.618Z,6.70
2023-05-11T05:02:55.571Z,6.50
2023-05-11T05:05:28.771Z,7.13
2023-05-11T05:07:58.784Z,7.53
2023-05-11T05:10:29.212Z,8.30
2023-05-11T05:12:59.210Z,7.93
2023-05-11T05:15:30.115Z,6.85
2023-05-11T05:18:00.608Z,5.85
2023-05-11T05:20:35.286Z,7.88
2023-05-11T05:23:05.861Z,8.25
2023-05-11T05:25:37.516Z,7.00
2023-05-11T05:28:08.014Z,7.80
2023-05-11T05:30:38.798Z,7.20
2023-05-11T05:33:09.272Z,5.75
2023-05-11T05:35:42.922Z,6.50
2023-05-11T05:38:13.580Z,5.20
2023-05-11T05:40:43.906Z,5.88
2023-05-11T05:43:14.203Z,6.13
2023-05-11T05:45:44.214Z,4.75
2023-05-11T05:48:14.305Z,5.97
2023-05-11T05:50:47.272Z,9.77
2023-05-11T05:53:17.701Z,5.07
2023-05-11T05:55:48.035Z,6.13
2023-05-11T05:58:18.080Z,6.05
2023-05-11T06:00:48.200Z,6.22
2023-05-11T06:03:18.617Z,6.32
2023-05-11T06:05:51.549Z,5.90
2023-05-11T06:08:21.931Z,5.82
2023-05-11T06:10:53.581Z,5.93
2023-05-11T06:13:23.928Z,4.47
2023-05-11T06:15:54.421Z,5.40
2023-05-11T06:18:31.386Z,4.30
2023-05-11T06:21:04.774Z,4.70
2023-05-11T06:23:36.052Z,7.57
2023-05-11T06:26:06.241Z,5.15
2023-05-11T06:28:37.206Z,5.05
2023-05-11T06:31:11.114Z,4.25
2023-05-11T06:33:43.227Z,5.28
2023-05-11T06:36:25.318Z,4.95
2023-05-11T06:38:55.664Z,5.10
2023-05-11T06:41:26.166Z,5.35
2023-05-11T06:43:56.460Z,7.63
2023-05-11T06:46:31.864Z,6.57
2023-05-11T06:49:02.083Z,4.85
2023-05-11T06:51:36.056Z,4.88
2023-05-11T06:54:06.424Z,5.20
2023-05-11T06:56:38.481Z,4.05
2023-05-11T06:59:08.790Z,4.20
2023-05-11T07:01:39.522Z,5.22
2023-05-11T07:04:09.950Z,9.65
2023-05-11T07:06:42.588Z,6.18
2023-05-11T07:09:12.755Z,3.53
2023-05-11T07:11:42.828Z,4.15
2023-05-11T07:14:13.208Z,8.80
2023-05-11T07:16:43.575Z,5.90
2023-05-11T07:19:14.119Z,4.85
2023-05-11T07:21:46.877Z,5.40
2023-05-11T07:24:17.271Z,4.95
2023-05-11T07:26:47.566Z,8.07
2023-05-11T07:29:17.874Z,4.70
2023-05-11T07:31:48.537Z,5.07
2023-05-11T07:34:19.131Z,6.22
2023-05-11T07:36:52.035Z,3.83
2023-05-11T07:39:22.336Z,7.30
2023-05-11T07:41:52.859Z,3.70
2023-05-11T07:44:23.187Z,4.90
2023-05-11T07:46:53.476Z,4.10
2023-05-11T07:49:31.575Z,6.97
2023-05-11T07:52:15.362Z,4.38
2023-05-11T07:54:45.636Z,8.07
2023-05-11T07:57:16.066Z,4.57
2023-05-11T07:59:46.333Z,5.95
2023-05-11T08:02:19.055Z,4.72
2023-05-11T08:04:49.718Z,5.90
2023-05-11T08:07:22.578Z,5.72
2023-05-11T08:09:52.874Z,4.15
2023-05-11T08:12:23.287Z,4.43
2023-05-11T08:14:53.609Z,3.75
2023-05-11T08:17:23.659Z,4.43
2023-05-11T08:19:54.376Z,5.05
2023-05-11T08:22:27.012Z,4.57
2023-05-11T08:24:57.341Z,4.90
2023-05-11T08:27:27.669Z,3.50
2023-05-11T08:29:58.508Z,4.03
2023-05-11T08:32:29.561Z,4.15
2023-05-11T08:35:00.325Z,3.80
2023-05-11T08:37:33.265Z,3.42
2023-05-11T08:40:04.060Z,6.32
2023-05-11T08:42:37.156Z,4.85
2023-05-11T08:45:09.275Z,3.42
2023-05-11T08:47:39.636Z,6.65
2023-05-11T08:50:10.356Z,3.58
2023-05-11T08:52:43.579Z,4.88
2023-05-11T08:55:14.152Z,5.57
2023-05-11T08:57:47.242Z,3.90
2023-05-11T09:00:18.381Z,3.55
2023-05-11T09:02:48.935Z,3.42
2023-05-11T09:05:19.963Z,3.25
2023-05-11T09:07:55.644Z,5.85
2023-05-11T09:10:25.750Z,4.07
2023-05-11T09:12:56.024Z,5.30
2023-05-11T09:15:26.177Z,4.10
2023-05-11T09:17:56.690Z,5.38
2023-05-11T09:20:31.851Z,5.00
2023-05-11T09:23:04.844Z,5.22
2023-05-11T09:25:35.989Z,5.22
2023-05-11T09:28:06.285Z,4.30
2023-05-11T09:30:37.777Z,8.02
2023-05-11T09:33:08.556Z,5.03
2023-05-11T09:35:39.486Z,5.22
2023-05-11T09:38:14.381Z,5.75
2023-05-11T09:40:46.543Z,7.85
2023-05-11T09:43:21.978Z,5.50
2023-05-11T09:45:53.373Z,8.68
2023-05-11T09:48:32.045Z,7.03
2023-05-11T09:51:04.148Z,4.60
2023-05-11T09:53:43.174Z,7.13
2023-05-11T09:56:14.193Z,4.65
2023-05-11T09:58:52.735Z,4.57
2023-05-11T10:01:32.639Z,4.10
2023-05-11T10:04:13.906Z,5.40
2023-05-11T10:06:53.253Z,4.93
2023-05-11T10:09:28.655Z,4.55
2023-05-11T10:11:59.148Z,4.00
2023-05-11T10:14:31.387Z,6.22
2023-05-11T10:17:02.015Z,5.68
2023-05-11T10:19:33.049Z,4.95
2023-05-11T10:22:05.759Z,5.70
2023-05-11T10:24:39.681Z,3.78
2023-05-11T10:27:10.284Z,4.32
2023-05-11T10:29:40.922Z,4.97
2023-05-11T10:32:11.871Z,5.13
2023-05-11T10:34:42.445Z,10.30
2023-05-11T10:37:12.959Z,8.43
2023-05-11T10:39:50.089Z,9.77
2023-05-11T10:42:31.032Z,5.20
2023-05-11T10:45:16.884Z,4.18
2023-05-11T10:48:16.723Z,7.03
2023-05-11T10:51:00.445Z,6.72
2023-05-11T10:53:48.604Z,5.68
2023-05-11T10:56:36.217Z,4.63
2023-05-11T10:59:19.031Z,3.92
2023-05-11T11:01:49.820Z,8.73
2023-05-11T11:04:20.698Z,6.95
2023-05-11T11:06:51.089Z,6.53
2023-05-11T11:09:21.393Z,5.55
2023-05-11T11:11:54.009Z,5.78
2023-05-11T11:14:26.452Z,5.97
2023-05-11T11:17:27.911Z,5.90
2023-05-11T11:20:01.212Z,8.85
2023-05-11T11:22:47.944Z,7.23
2023-05-11T11:25:19.555Z,9.90
2023-05-11T11:28:01.977Z,5.18
2023-05-11T11:30:33.593Z,5.90
2023-05-11T11:33:18.996Z,6.18
2023-05-11T11:35:50.078Z,5.82
2023-05-11T11:38:21.601Z,5.47
2023-05-11T11:40:53.229Z,9.50
2023-05-11T11:43:27.042Z,5.88
2023-05-11T11:45:57.626Z,5.07
2023-05-11T11:48:33.763Z,6.15
2023-05-11T11:51:05.731Z,5.53
2023-05-11T11:53:51.383Z,7.40
2023-05-11T11:56:40.769Z,4.57
2023-05-11T11:59:15.374Z,4.97
2023-05-11T12:01:47.023Z,5.22
2023-05-11T12:04:42.301Z,6.05
2023-05-11T12:07:15.753Z,5.25
2023-05-11T12:09:48.894Z,7.45
2023-05-11T12:12:21.619Z,6.35
2023-05-11T12:14:54.525Z,6.18
2023-05-11T12:17:29.949Z,7.25
2023-05-11T12:20:16.160Z,11.15
2023-05-11T12:22:47.207Z,6.28
2023-05-11T12:25:18.294Z,10.60
2023-05-11T12:27:50.760Z,7.20
2023-05-11T12:30:26.592Z,5.50
2023-05-11T12:32:57.873Z,9.40
2023-05-11T12:35:29.262Z,7.03
2023-05-11T12:38:00.084Z,9.25
2023-05-11T12:40:30.167Z,7.32
2023-05-11T12:43:01.913Z,6.05
2023-05-11T12:45:34.675Z,6.57
2023-05-11T12:48:05.046Z,6.45
2023-05-11T12:50:35.164Z,6.68
2023-05-11T12:53:18.338Z,6.95
2023-05-11T12:55:59.879Z,6.05
2023-05-11T12:58:30.514Z,6.65
2023-05-11T13:01:03.202Z,5.75
2023-05-11T13:03:35.858Z,5.63
2023-05-11T13:06:09.879Z,6.20
2023-05-11T13:08:40.405Z,4.97
2023-05-11T13:11:23.307Z,7.45
2023-05-11T13:13:53.513Z,8.00
2023-05-11T13:16:31.315Z,10.93
2023-05-11T13:19:02.575Z,6.82
2023-05-11T13:21:33.639Z,5.25
2023-05-11T13:24:04.397Z,7.32
2023-05-11T13:26:35.142Z,9.95
2023-05-11T13:29:11.155Z,5.15
2023-05-11T13:31:51.537Z,5.68
2023-05-11T13:34:22.177Z,7.28
2023-05-11T13:36:52.470Z,3.20
2023-05-11T13:39:22.818Z,4.75
2023-05-11T13:41:55.038Z,6.32
2023-05-11T13:44:25.867Z,5.40
2023-05-11T13:46:58.775Z,6.32
2023-05-11T13:49:28.866Z,5.22
2023-05-11T13:52:00.181Z,5.72
2023-05-11T13:54:31.956Z,5.78
2023-05-11T13:57:04.358Z,8.63
2023-05-11T13:59:34.662Z,4.72
2023-05-11T14:02:07.453Z,5.53
2023-05-11T14:04:37.655Z,4.40
2023-05-11T14:07:08.112Z,3.53
2023-05-11T14:09:39.636Z,4.28
2023-05-11T14:12:10.232Z,3.70
2023-05-11T14:14:40.228Z,4.43
2023-05-11T14:17:13.903Z,4.15
2023-05-11T14:19:44.258Z,3.05
2023-05-11T14:22:14.741Z,7.03
2023-05-11T14:24:45.098Z,3.97
2023-05-11T14:27:15.370Z,3.38
2023-05-11T14:29:45.535Z,6.28
2023-05-11T14:32:19.110Z,3.95
2023-05-11T14:34:49.585Z,3.30
2023-05-11T14:37:19.870Z,3.22
2023-05-11T14:39:49.895Z,2.22
2023-05-11T14:42:19.926Z,4.18
2023-05-11T14:44:49.915Z,4.05
2023-05-11T14:47:22.826Z,3.95
2023-05-11T14:49:53.247Z,4.40
2023-05-11T14:52:23.512Z,4.50
2023-05-11T14:54:53.812Z,4.07
2023-05-11T14:57:24.102Z,3.33
2023-05-11T15:00:00.014Z,4.63
2023-05-11T15:02:33.300Z,4.43
2023-05-11T15:05:03.810Z,3.30
2023-05-11T15:07:34.277Z,3.85
2023-05-11T15:10:04.644Z,2.35
2023-05-11T15:12:34.826Z,3.15
2023-05-11T15:15:05.478Z,2.28
2023-05-11T15:17:38.192Z,3.38
2023-05-11T15:20:10.312Z,3.92
2023-05-11T15:22:40.367Z,2.00
2023-05-11T15:25:11.169Z,2.20
2023-05-11T15:27:41.409Z,3.13
2023-05-11T15:30:13.017Z,2.92
2023-05-11T15:32:45.707Z,4.80
2023-05-11T15:35:17.225Z,3.10
2023-05-11T15:37:47.402Z,2.15
2023-05-11T15:40:17.831Z,2.55
2023-05-11T15:42:48.108Z,2.58
2023-05-11T15:45:18.497Z,2.00
2023-05-11T15:47:51.398Z,2.58
2023-05-11T15:50:21.838Z,3.78
2023-05-11T15:52:52.709Z,2.33
2023-05-11T15:55:22.822Z,2.13
2023-05-11T15:57:52.859Z,1.15
2023-05-11T16:00:23.237Z,2.50
2023-05-11T16:02:56.000Z,2.78
2023-05-11T16:05:27.043Z,1.52
2023-05-11T16:07:57.530Z,1.23
2023-05-11T16:10:27.936Z,1.60
2023-05-11T16:12:58.867Z,1.10
2023-05-11T16:15:29.613Z,1.83
2023-05-11T16:18:04.693Z,3.55
2023-05-11T16:20:35.670Z,2.95
2023-05-11T16:23:05.941Z,2.05
2023-05-11T16:25:35.932Z,4.40
2023-05-11T16:28:06.567Z,2.55
2023-05-11T16:30:36.874Z,2.88
2023-05-11T16:33:09.637Z,3.00
2023-05-11T16:35:39.684Z,2.53
2023-05-11T16:38:09.943Z,2.55
2023-05-11T16:40:40.216Z,2.45
2023-05-11T16:43:10.657Z,6.18
2023-05-11T16:45:41.081Z,2.25
2023-05-11T16:48:13.719Z,2.20
2023-05-11T16:50:44.053Z,4.07
2023-05-11T16:53:14.616Z,2.03
2023-05-11T16:55:45.120Z,2.70
2023-05-11T16:58:15.243Z,3.75
2023-05-11T17:00:45.859Z,3.25
2023-05-11T17:03:18.600Z,2.53
2023-05-11T17:05:49.110Z,3.28
2023-05-11T17:08:19.362Z,3.63
2023-05-11T17:10:49.776Z,4.03
2023-05-11T17:13:19.861Z,2.30
2023-05-11T17:15:51.599Z,5.80
2023-05-11T17:18:24.257Z,5.60
2023-05-11T17:20:58.228Z,1.85
2023-05-11T17:23:28.726Z,3.10
2023-05-11T17:25:59.172Z,2.78
2023-05-11T17:28:29.874Z,2.95
2023-05-11T17:31:00.414Z,3.90
2023-05-11T17:33:33.429Z,3.40
2023-05-11T17:36:04.211Z,2.28
2023-05-11T17:38:34.592Z,2.83
2023-05-11T17:41:06.946Z,2.40
2023-05-11T17:43:38.395Z,3.40
2023-05-11T17:46:08.600Z,2.30
2023-05-11T17:48:41.259Z,3.85
2023-05-11T17:51:11.550Z,2.92
2023-05-11T17:53:42.080Z,2.58
2023-05-11T17:56:13.750Z,2.70
2023-05-11T17:58:44.511Z,3.80
2023-05-11T18:01:15.520Z,4.38
2023-05-11T18:03:48.760Z,2.33
2023-05-11T18:06:19.286Z,3.80
2023-05-11T18:08:49.319Z,2.20
2023-05-11T18:11:19.711Z,3.33
2023-05-11T18:13:50.418Z,2.92
2023-05-11T18:16:21.417Z,6.65
2023-05-11T18:18:54.225Z,4.25
2023-05-11T18:21:26.865Z,2.22
2023-05-11T18:23:57.261Z,2.55
2023-05-11T18:26:28.806Z,2.97
2023-05-11T18:28:59.145Z,2.10
2023-05-11T18:31:29.527Z,3.92
2023-05-11T18:34:02.190Z,2.17
2023-05-11T18:36:32.524Z,3.17
2023-05-11T18:39:02.838Z,3.10
2023-05-11T18:41:33.234Z,3.70
2023-05-11T18:44:03.417Z,4.45
2023-05-11T18:46:33.684Z,5.38
2023-05-11T18:49:06.760Z,3.15
2023-05-11T18:51:36.816Z,2.80
2023-05-11T18:54:07.300Z,4.65
2023-05-11T18:56:37.645Z,2.10
2023-05-11T18:59:08.054Z,3.80
2023-05-11T19:01:47.744Z,5.03
2023-05-11T19:04:22.197Z,2.17
2023-05-11T19:06:52.496Z,4.03
2023-05-11T19:09:23.220Z,2.75
2023-05-11T19:11:53.519Z,3.95
2023-05-11T19:14:23.853Z,4.93
2023-05-11T19:16:57.182Z,3.30
2023-05-11T19:19:29.976Z,3.58
2023-05-11T19:22:00.356Z,2.92
2023-05-11T19:24:31.029Z,2.17
2023-05-11T19:27:07.476Z,2.97
2023-05-11T19:29:38.422Z,4.13
2023-05-11T19:32:09.488Z,3.03
2023-05-11T19:34:42.108Z,4.88
2023-05-11T19:37:12.363Z,2.95
2023-05-11T19:39:44.131Z,2.58
2023-05-11T19:42:15.832Z,3.08
2023-05-11T19:44:47.102Z,2.45
2023-05-11T19:47:17.759Z,3.97
2023-05-11T19:49:50.432Z,3.17
2023-05-11T19:52:20.767Z,3.45
2023-05-11T19:54:51.873Z,2.97
2023-05-11T19:57:22.539Z,6.88
2023-05-11T19:59:52.536Z,6.70
2023-05-11T20:02:22.593Z,5.28
2023-05-11T20:04:55.557Z,5.78
2023-05-11T20:07:26.301Z,3.50
2023-05-11T20:09:57.059Z,3.90
2023-05-11T20:12:27.364Z,3.28
2023-05-11T20:14:57.682Z,3.47
2023-05-11T20:17:28.216Z,3.08
2023-05-11T20:20:00.879Z,4.13
2023-05-11T20:22:31.203Z,4.45
2023-05-11T20:25:01.538Z,3.80
2023-05-11T20:27:32.162Z,5.40
2023-05-11T20:30:02.558Z,6.45
2023-05-11T20:32:32.975Z,4.10
2023-05-11T20:35:06.026Z,4.50
2023-05-11T20:37:36.605Z,6.60
2023-05-11T20:40:07.393Z,4.55
2023-05-11T20:42:37.703Z,5.82
2023-05-11T20:45:09.062Z,8.27
2023-05-11T20:47:39.484Z,6.82
2023-05-11T20:50:13.511Z,4.88
2023-05-11T20:52:44.031Z,4.82
2023-05-11T20:55:14.392Z,4.88
2023-05-11T20:57:44.876Z,5.68
2023-05-11T21:00:16.449Z,6.55
2023-05-11T21:02:47.513Z,5.20
2023-05-11T21:05:20.609Z,4.57
2023-05-11T21:07:50.885Z,6.13
2023-05-11T21:10:21.501Z,6.65
2023-05-11T21:12:51.978Z,6.18
2023-05-11T21:15:22.282Z,4.90
2023-05-11T21:17:53.400Z,6.28
2023-05-11T21:20:26.073Z,6.32
2023-05-11T21:22:56.892Z,8.07
2023-05-11T21:25:27.179Z,9.07
2023-05-11T21:27:57.517Z,4.47
2023-05-11T21:30:28.237Z,7.53
2023-05-11T21:32:58.595Z,5.10
2023-05-11T21:35:31.423Z,10.77
2023-05-11T21:38:01.707Z,5.30
2023-05-11T21:40:32.459Z,5.28
2023-05-11T21:43:02.740Z,5.38
2023-05-11T21:45:33.043Z,7.43
2023-05-11T21:48:03.341Z,6.18
2023-05-11T21:50:35.982Z,6.70
2023-05-11T21:53:06.308Z,5.00
2023-05-11T21:55:36.663Z,4.85
2023-05-11T21:58:07.303Z,7.35
2023-05-11T22:00:38.161Z,5.00
2023-05-11T22:03:09.321Z,6.40
2023-05-11T22:05:42.442Z,5.85
2023-05-11T22:08:15.272Z,9.25
2023-05-11T22:10:46.326Z,5.95
2023-05-11T22:13:16.694Z,6.45
2023-05-11T22:15:47.305Z,5.78
2023-05-11T22:18:17.605Z,11.82
2023-05-11T22:20:50.204Z,4.72
2023-05-11T22:23:21.270Z,6.53
2023-05-11T22:25:51.604Z,7.00
2023-05-11T22:28:21.992Z,6.63
2023-05-11T22:30:52.268Z,6.53
2023-05-11T22:33:22.579Z,6.45
2023-05-11T22:35:55.249Z,7.78
2023-05-11T22:38:25.572Z,7.63
2023-05-11T22:40:55.999Z,5.57
2023-05-11T22:43:26.342Z,5.82
2023-05-11T22:45:56.848Z,7.60
2023-05-11T22:48:27.306Z,7.60
2023-05-11T22:50:59.896Z,7.70
2023-05-11T22:53:30.224Z,7.05
2023-05-11T22:56:00.797Z,8.07
2023-05-11T22:58:31.583Z,7.28
2023-05-11T23:01:01.948Z,7.32
2023-05-11T23:03:32.350Z,10.88
2023-05-11T23:06:04.995Z,7.70
2023-05-11T23:08:35.306Z,8.23
2023-05-11T23:11:05.919Z,9.50
2023-05-11T23:13:36.462Z,7.97
2023-05-11T23:16:06.893Z,7.80
2023-05-11T23:18:37.363Z,7.47
2023-05-11T23:21:10.118Z,8.10
2023-05-11T23:23:42.636Z,9.13
2023-05-11T23:26:13.947Z,7.80
2023-05-11T23:28:44.683Z,8.32
2023-05-11T23:31:15.075Z,8.00
2023-05-11T23:33:45.539Z,9.57
2023-05-11T23:36:18.143Z,11.07
2023-05-11T23:38:48.469Z,10.10
2023-05-11T23:41:18.778Z,9.80
2023-05-11T23:43:49.059Z,9.68
2023-05-11T23:46:19.719Z,8.57
2023-05-11T23:48:50.757Z,8.95
2023-05-11T23:51:23.384Z,10.50
2023-05-11T23:53:53.713Z,11.40
2023-05-11T23:56:23.997Z,7.15
2023-05-11T23:58:54.483Z,7.60
